sensor_id;sensor_type;location;lat;lon;timestamp;P1;durP1;ratioP1;P2;durP2;ratioP2
42840;SDS011;28491;46.898;7.660;2022-08-19T00:01:07;14.18;;;12.18;;
42840;SDS011;28491;46.898;7.660;2022-08-19T00:03:33;14.52;;;13.02;;
42840;SDS011;28491;46.898;7.660;2022-08-19T00:05:59;14.90;;;12.57;;
42840;SDS011;28491;46.898;7.660;2022-08-19T00:08:24;17.15;;;13.90;;
42840;SDS011;28491;46.898;7.660;2022-08-19T00:10:50;25.77;;;14.00;;
42840;SDS011;28491;46.898;7.660;2022-08-19T00:13:16;19.60;;;14.35;;
42840;SDS011;28491;46.898;7.660;2022-08-19T00:15:41;15.63;;;13.85;;
42840;SDS011;28491;46.898;7.660;2022-08-19T00:18:09;17.60;;;13.48;;
42840;SDS011;28491;46.898;7.660;2022-08-19T00:20:35;15.23;;;13.63;;
42840;SDS011;28491;46.898;7.660;2022-08-19T00:23:03;17.75;;;13.60;;
42840;SDS011;28491;46.898;7.660;2022-08-19T00:25:28;13.77;;;12.27;;
42840;SDS011;28491;46.898;7.660;2022-08-19T00:27:54;13.05;;;11.25;;
42840;SDS011;28491;46.898;7.660;2022-08-19T00:30:20;16.42;;;12.23;;
42840;SDS011;28491;46.898;7.660;2022-08-19T00:32:46;12.43;;;10.15;;
42840;SDS011;28491;46.898;7.660;2022-08-19T00:35:12;15.05;;;11.73;;
42840;SDS011;28491;46.898;7.660;2022-08-19T00:37:37;15.38;;;12.35;;
42840;SDS011;28491;46.898;7.660;2022-08-19T00:40:05;16.10;;;13.05;;
42840;SDS011;28491;46.898;7.660;2022-08-19T00:42:31;14.48;;;12.60;;
42840;SDS011;28491;46.898;7.660;2022-08-19T00:44:57;15.35;;;13.43;;
42840;SDS011;28491;46.898;7.660;2022-08-19T00:47:23;20.25;;;12.95;;
42840;SDS011;28491;46.898;7.660;2022-08-19T00:49:49;14.63;;;11.98;;
42840;SDS011;28491;46.898;7.660;2022-08-19T00:52:23;15.82;;;12.60;;
42840;SDS011;28491;46.898;7.660;2022-08-19T00:54:54;13.93;;;12.23;;
42840;SDS011;28491;46.898;7.660;2022-08-19T00:57:22;13.77;;;12.38;;
42840;SDS011;28491;46.898;7.660;2022-08-19T00:59:52;13.85;;;12.18;;
42840;SDS011;28491;46.898;7.660;2022-08-19T01:02:20;14.65;;;12.10;;
42840;SDS011;28491;46.898;7.660;2022-08-19T01:04:46;13.63;;;12.07;;
42840;SDS011;28491;46.898;7.660;2022-08-19T01:07:11;12.65;;;11.30;;
42840;SDS011;28491;46.898;7.660;2022-08-19T01:09:37;13.05;;;11.30;;
42840;SDS011;28491;46.898;7.660;2022-08-19T01:12:03;16.17;;;12.77;;
42840;SDS011;28491;46.898;7.660;2022-08-19T01:14:29;14.10;;;12.43;;
42840;SDS011;28491;46.898;7.660;2022-08-19T01:16:55;12.98;;;11.63;;
42840;SDS011;28491;46.898;7.660;2022-08-19T01:19:29;11.90;;;10.27;;
42840;SDS011;28491;46.898;7.660;2022-08-19T01:22:01;13.63;;;11.07;;
42840;SDS011;28491;46.898;7.660;2022-08-19T01:24:30;13.00;;;11.05;;
42840;SDS011;28491;46.898;7.660;2022-08-19T01:26:56;13.70;;;11.73;;
42840;SDS011;28491;46.898;7.660;2022-08-19T01:29:22;12.90;;;11.60;;
42840;SDS011;28491;46.898;7.660;2022-08-19T01:31:48;17.60;;;12.93;;
42840;SDS011;28491;46.898;7.660;2022-08-19T01:34:18;14.38;;;12.13;;
42840;SDS011;28491;46.898;7.660;2022-08-19T01:36:45;17.50;;;12.23;;
42840;SDS011;28491;46.898;7.660;2022-08-19T01:39:16;17.55;;;11.85;;
42840;SDS011;28491;46.898;7.660;2022-08-19T01:41:44;14.25;;;12.13;;
42840;SDS011;28491;46.898;7.660;2022-08-19T01:44:10;13.32;;;11.93;;
42840;SDS011;28491;46.898;7.660;2022-08-19T01:46:36;12.60;;;11.05;;
42840;SDS011;28491;46.898;7.660;2022-08-19T01:49:03;13.20;;;11.43;;
42840;SDS011;28491;46.898;7.660;2022-08-19T01:51:32;13.65;;;11.23;;
42840;SDS011;28491;46.898;7.660;2022-08-19T01:53:58;12.63;;;11.32;;
42840;SDS011;28491;46.898;7.660;2022-08-19T01:56:24;13.52;;;11.98;;
42840;SDS011;28491;46.898;7.660;2022-08-19T01:58:51;13.77;;;11.95;;
42840;SDS011;28491;46.898;7.660;2022-08-19T02:01:20;13.25;;;10.68;;
42840;SDS011;28491;46.898;7.660;2022-08-19T02:03:45;12.98;;;10.98;;
42840;SDS011;28491;46.898;7.660;2022-08-19T02:06:11;11.57;;;10.30;;
42840;SDS011;28491;46.898;7.660;2022-08-19T02:08:38;14.45;;;11.93;;
42840;SDS011;28491;46.898;7.660;2022-08-19T02:11:05;14.40;;;11.70;;
42840;SDS011;28491;46.898;7.660;2022-08-19T02:13:32;13.43;;;10.07;;
42840;SDS011;28491;46.898;7.660;2022-08-19T02:15:58;15.68;;;11.20;;
42840;SDS011;28491;46.898;7.660;2022-08-19T02:18:24;10.95;;;9.88;;
42840;SDS011;28491;46.898;7.660;2022-08-19T02:20:51;13.88;;;11.15;;
42840;SDS011;28491;46.898;7.660;2022-08-19T02:23:17;13.98;;;10.88;;
42840;SDS011;28491;46.898;7.660;2022-08-19T02:25:43;13.13;;;10.50;;
42840;SDS011;28491;46.898;7.660;2022-08-19T02:28:10;11.95;;;10.45;;
42840;SDS011;28491;46.898;7.660;2022-08-19T02:30:36;11.43;;;9.57;;
42840;SDS011;28491;46.898;7.660;2022-08-19T02:33:03;11.57;;;9.88;;
42840;SDS011;28491;46.898;7.660;2022-08-19T02:35:29;14.10;;;11.10;;
42840;SDS011;28491;46.898;7.660;2022-08-19T02:37:55;14.85;;;10.85;;
42840;SDS011;28491;46.898;7.660;2022-08-19T02:40:39;13.32;;;10.75;;
42840;SDS011;28491;46.898;7.660;2022-08-19T02:43:05;15.68;;;11.85;;
42840;SDS011;28491;46.898;7.660;2022-08-19T02:45:34;18.33;;;12.10;;
42840;SDS011;28491;46.898;7.660;2022-08-19T02:48:00;14.70;;;12.07;;
42840;SDS011;28491;46.898;7.660;2022-08-19T02:50:26;12.27;;;10.98;;
42840;SDS011;28491;46.898;7.660;2022-08-19T02:52:52;14.55;;;12.07;;
42840;SDS011;28491;46.898;7.660;2022-08-19T02:55:17;12.20;;;10.93;;
42840;SDS011;28491;46.898;7.660;2022-08-19T02:57:43;13.07;;;11.70;;
42840;SDS011;28491;46.898;7.660;2022-08-19T03:00:09;12.18;;;10.82;;
42840;SDS011;28491;46.898;7.660;2022-08-19T03:02:37;13.02;;;10.02;;
42840;SDS011;28491;46.898;7.660;2022-08-19T03:05:03;13.60;;;10.52;;
42840;SDS011;28491;46.898;7.660;2022-08-19T03:07:29;13.88;;;11.32;;
42840;SDS011;28491;46.898;7.660;2022-08-19T03:09:55;32.85;;;11.63;;
42840;SDS011;28491;46.898;7.660;2022-08-19T03:12:21;57.78;;;12.43;;
42840;SDS011;28491;46.898;7.660;2022-08-19T03:14:46;17.35;;;9.50;;
42840;SDS011;28491;46.898;7.660;2022-08-19T03:17:12;59.58;;;11.25;;
42840;SDS011;28491;46.898;7.660;2022-08-19T03:19:38;32.08;;;8.25;;
42840;SDS011;28491;46.898;7.660;2022-08-19T03:22:03;14.50;;;9.70;;
42840;SDS011;28491;46.898;7.660;2022-08-19T03:24:29;18.15;;;9.90;;
42840;SDS011;28491;46.898;7.660;2022-08-19T03:26:55;14.68;;;9.52;;
42840;SDS011;28491;46.898;7.660;2022-08-19T03:29:22;12.20;;;7.97;;
42840;SDS011;28491;46.898;7.660;2022-08-19T03:31:48;10.82;;;7.43;;
42840;SDS011;28491;46.898;7.660;2022-08-19T03:34:16;9.23;;;8.05;;
42840;SDS011;28491;46.898;7.660;2022-08-19T03:36:45;16.77;;;10.10;;
42840;SDS011;28491;46.898;7.660;2022-08-19T03:39:11;17.02;;;10.52;;
42840;SDS011;28491;46.898;7.660;2022-08-19T03:41:38;15.75;;;9.65;;
42840;SDS011;28491;46.898;7.660;2022-08-19T03:44:06;8.98;;;8.00;;
42840;SDS011;28491;46.898;7.660;2022-08-19T03:46:33;10.48;;;8.27;;
42840;SDS011;28491;46.898;7.660;2022-08-19T03:49:00;9.73;;;7.57;;
42840;SDS011;28491;46.898;7.660;2022-08-19T03:51:33;10.48;;;6.75;;
42840;SDS011;28491;46.898;7.660;2022-08-19T03:54:03;14.95;;;7.28;;
42840;SDS011;28491;46.898;7.660;2022-08-19T03:56:30;7.43;;;6.55;;
42840;SDS011;28491;46.898;7.660;2022-08-19T03:58:58;8.20;;;6.35;;
42840;SDS011;28491;46.898;7.660;2022-08-19T04:01:25;9.20;;;7.78;;
42840;SDS011;28491;46.898;7.660;2022-08-19T04:03:52;14.85;;;10.02;;
42840;SDS011;28491;46.898;7.660;2022-08-19T04:06:20;15.85;;;9.60;;
42840;SDS011;28491;46.898;7.660;2022-08-19T04:08:51;26.02;;;14.80;;
42840;SDS011;28491;46.898;7.660;2022-08-19T04:11:20;27.30;;;14.43;;
42840;SDS011;28491;46.898;7.660;2022-08-19T04:13:48;24.10;;;11.27;;
42840;SDS011;28491;46.898;7.660;2022-08-19T04:16:16;12.38;;;9.50;;
42840;SDS011;28491;46.898;7.660;2022-08-19T04:18:43;22.40;;;11.95;;
42840;SDS011;28491;46.898;7.660;2022-08-19T04:21:14;22.83;;;11.02;;
42840;SDS011;28491;46.898;7.660;2022-08-19T04:23:44;12.45;;;8.82;;
42840;SDS011;28491;46.898;7.660;2022-08-19T04:26:17;12.40;;;9.57;;
42840;SDS011;28491;46.898;7.660;2022-08-19T04:28:45;9.63;;;7.72;;
42840;SDS011;28491;46.898;7.660;2022-08-19T04:31:15;10.68;;;8.05;;
42840;SDS011;28491;46.898;7.660;2022-08-19T04:33:45;7.82;;;6.45;;
42840;SDS011;28491;46.898;7.660;2022-08-19T04:36:21;11.48;;;6.43;;
42840;SDS011;28491;46.898;7.660;2022-08-19T04:38:49;9.73;;;6.25;;
42840;SDS011;28491;46.898;7.660;2022-08-19T04:41:17;9.23;;;7.32;;
42840;SDS011;28491;46.898;7.660;2022-08-19T04:44:02;8.75;;;6.72;;
42840;SDS011;28491;46.898;7.660;2022-08-19T04:46:27;7.80;;;6.45;;
42840;SDS011;28491;46.898;7.660;2022-08-19T04:51:26;13.45;;;8.35;;
42840;SDS011;28491;46.898;7.660;2022-08-19T04:53:52;10.82;;;8.55;;
42840;SDS011;28491;46.898;7.660;2022-08-19T04:56:19;12.55;;;8.57;;
42840;SDS011;28491;46.898;7.660;2022-08-19T04:58:51;11.02;;;8.85;;
42840;SDS011;28491;46.898;7.660;2022-08-19T05:01:18;12.45;;;9.00;;
42840;SDS011;28491;46.898;7.660;2022-08-19T05:06:12;14.85;;;9.02;;
42840;SDS011;28491;46.898;7.660;2022-08-19T05:08:39;12.10;;;8.48;;
42840;SDS011;28491;46.898;7.660;2022-08-19T05:13:36;11.82;;;8.15;;
42840;SDS011;28491;46.898;7.660;2022-08-19T05:16:02;10.65;;;9.52;;
42840;SDS011;28491;46.898;7.660;2022-08-19T05:18:28;11.98;;;8.88;;
42840;SDS011;28491;46.898;7.660;2022-08-19T05:21:13;10.85;;;8.82;;
42840;SDS011;28491;46.898;7.660;2022-08-19T05:23:59;11.10;;;8.77;;
42840;SDS011;28491;46.898;7.660;2022-08-19T05:26:25;9.57;;;7.45;;
42840;SDS011;28491;46.898;7.660;2022-08-19T05:28:54;9.30;;;7.32;;
42840;SDS011;28491;46.898;7.660;2022-08-19T05:31:20;11.15;;;8.07;;
42840;SDS011;28491;46.898;7.660;2022-08-19T05:33:46;8.75;;;7.35;;
42840;SDS011;28491;46.898;7.660;2022-08-19T05:36:12;9.73;;;7.13;;
42840;SDS011;28491;46.898;7.660;2022-08-19T05:38:38;10.07;;;7.20;;
42840;SDS011;28491;46.898;7.660;2022-08-19T05:41:08;7.65;;;6.70;;
42840;SDS011;28491;46.898;7.660;2022-08-19T05:43:35;13.68;;;7.85;;
42840;SDS011;28491;46.898;7.660;2022-08-19T05:46:02;10.93;;;7.82;;
42840;SDS011;28491;46.898;7.660;2022-08-19T05:48:30;12.02;;;8.45;;
42840;SDS011;28491;46.898;7.660;2022-08-19T05:50:56;11.10;;;8.57;;
42840;SDS011;28491;46.898;7.660;2022-08-19T05:53:23;10.27;;;8.48;;
42840;SDS011;28491;46.898;7.660;2022-08-19T05:55:49;9.38;;;7.00;;
42840;SDS011;28491;46.898;7.660;2022-08-19T05:58:14;11.18;;;7.18;;
42840;SDS011;28491;46.898;7.660;2022-08-19T06:00:42;9.93;;;7.70;;
42840;SDS011;28491;46.898;7.660;2022-08-19T06:03:08;11.52;;;7.30;;
42840;SDS011;28491;46.898;7.660;2022-08-19T06:05:35;11.35;;;7.32;;
42840;SDS011;28491;46.898;7.660;2022-08-19T06:08:00;12.40;;;8.50;;
42840;SDS011;28491;46.898;7.660;2022-08-19T06:10:26;10.32;;;7.80;;
42840;SDS011;28491;46.898;7.660;2022-08-19T06:12:52;13.95;;;8.32;;
42840;SDS011;28491;46.898;7.660;2022-08-19T06:15:18;13.55;;;9.15;;
42840;SDS011;28491;46.898;7.660;2022-08-19T06:17:43;9.05;;;8.07;;
42840;SDS011;28491;46.898;7.660;2022-08-19T06:20:11;10.80;;;8.65;;
42840;SDS011;28491;46.898;7.660;2022-08-19T06:22:39;8.63;;;7.75;;
42840;SDS011;28491;46.898;7.660;2022-08-19T06:25:06;9.05;;;8.07;;
42840;SDS011;28491;46.898;7.660;2022-08-19T06:27:34;11.38;;;9.40;;
42840;SDS011;28491;46.898;7.660;2022-08-19T06:30:00;12.52;;;9.70;;
42840;SDS011;28491;46.898;7.660;2022-08-19T06:32:27;12.07;;;10.27;;
42840;SDS011;28491;46.898;7.660;2022-08-19T06:34:53;12.77;;;9.90;;
42840;SDS011;28491;46.898;7.660;2022-08-19T06:37:19;13.02;;;11.40;;
42840;SDS011;28491;46.898;7.660;2022-08-19T06:39:46;15.13;;;11.65;;
42840;SDS011;28491;46.898;7.660;2022-08-19T06:42:12;13.38;;;11.35;;
42840;SDS011;28491;46.898;7.660;2022-08-19T06:44:41;12.10;;;10.43;;
42840;SDS011;28491;46.898;7.660;2022-08-19T06:47:08;12.18;;;10.27;;
42840;SDS011;28491;46.898;7.660;2022-08-19T06:52:03;15.75;;;12.70;;
42840;SDS011;28491;46.898;7.660;2022-08-19T06:54:29;32.33;;;16.75;;
42840;SDS011;28491;46.898;7.660;2022-08-19T06:56:57;18.75;;;13.60;;
42840;SDS011;28491;46.898;7.660;2022-08-19T06:59:27;26.05;;;14.57;;
42840;SDS011;28491;46.898;7.660;2022-08-19T07:01:54;22.40;;;15.52;;
42840;SDS011;28491;46.898;7.660;2022-08-19T07:04:22;23.35;;;15.20;;
42840;SDS011;28491;46.898;7.660;2022-08-19T07:06:49;19.17;;;14.30;;
42840;SDS011;28491;46.898;7.660;2022-08-19T07:09:21;15.73;;;11.93;;
42840;SDS011;28491;46.898;7.660;2022-08-19T07:11:48;15.95;;;12.07;;
42840;SDS011;28491;46.898;7.660;2022-08-19T07:14:16;17.13;;;12.93;;
42840;SDS011;28491;46.898;7.660;2022-08-19T07:16:44;16.85;;;13.07;;
42840;SDS011;28491;46.898;7.660;2022-08-19T07:19:11;26.42;;;16.02;;
42840;SDS011;28491;46.898;7.660;2022-08-19T07:21:37;20.17;;;14.52;;
42840;SDS011;28491;46.898;7.660;2022-08-19T07:24:03;26.30;;;15.13;;
42840;SDS011;28491;46.898;7.660;2022-08-19T07:26:31;14.10;;;10.70;;
42840;SDS011;28491;46.898;7.660;2022-08-19T07:28:59;18.60;;;11.73;;
42840;SDS011;28491;46.898;7.660;2022-08-19T07:31:27;16.17;;;12.52;;
42840;SDS011;28491;46.898;7.660;2022-08-19T07:33:53;15.82;;;13.10;;
42840;SDS011;28491;46.898;7.660;2022-08-19T07:36:21;18.35;;;15.10;;
42840;SDS011;28491;46.898;7.660;2022-08-19T07:38:50;19.80;;;14.70;;
42840;SDS011;28491;46.898;7.660;2022-08-19T07:41:21;20.48;;;15.07;;
42840;SDS011;28491;46.898;7.660;2022-08-19T07:43:49;24.40;;;15.60;;
42840;SDS011;28491;46.898;7.660;2022-08-19T07:46:15;29.08;;;16.80;;
42840;SDS011;28491;46.898;7.660;2022-08-19T07:48:42;19.98;;;14.98;;
42840;SDS011;28491;46.898;7.660;2022-08-19T07:51:14;18.23;;;14.23;;
42840;SDS011;28491;46.898;7.660;2022-08-19T07:53:42;24.35;;;16.90;;
42840;SDS011;28491;46.898;7.660;2022-08-19T07:56:10;22.70;;;16.25;;
42840;SDS011;28491;46.898;7.660;2022-08-19T07:58:37;25.85;;;15.52;;
42840;SDS011;28491;46.898;7.660;2022-08-19T08:01:05;22.25;;;16.10;;
42840;SDS011;28491;46.898;7.660;2022-08-19T08:03:32;26.15;;;15.32;;
42840;SDS011;28491;46.898;7.660;2022-08-19T08:06:16;18.92;;;14.43;;
42840;SDS011;28491;46.898;7.660;2022-08-19T08:09:00;18.02;;;14.05;;
42840;SDS011;28491;46.898;7.660;2022-08-19T08:12:03;19.05;;;14.38;;
42840;SDS011;28491;46.898;7.660;2022-08-19T08:14:40;20.40;;;15.32;;
42840;SDS011;28491;46.898;7.660;2022-08-19T08:17:08;20.92;;;14.93;;
42840;SDS011;28491;46.898;7.660;2022-08-19T08:19:35;24.75;;;17.02;;
42840;SDS011;28491;46.898;7.660;2022-08-19T08:22:01;23.05;;;16.67;;
42840;SDS011;28491;46.898;7.660;2022-08-19T08:24:28;27.08;;;21.42;;
42840;SDS011;28491;46.898;7.660;2022-08-19T08:26:56;22.27;;;14.57;;
42840;SDS011;28491;46.898;7.660;2022-08-19T08:29:23;21.25;;;15.50;;
42840;SDS011;28491;46.898;7.660;2022-08-19T08:31:50;21.48;;;14.30;;
42840;SDS011;28491;46.898;7.660;2022-08-19T08:34:16;21.30;;;14.95;;
42840;SDS011;28491;46.898;7.660;2022-08-19T08:36:43;19.05;;;15.05;;
42840;SDS011;28491;46.898;7.660;2022-08-19T08:39:10;19.00;;;13.80;;
42840;SDS011;28491;46.898;7.660;2022-08-19T08:46:47;12.73;;;10.30;;
42840;SDS011;28491;46.898;7.660;2022-08-19T08:49:23;13.80;;;10.75;;
42840;SDS011;28491;46.898;7.660;2022-08-19T08:52:23;12.52;;;9.77;;
42840;SDS011;28491;46.898;7.660;2022-08-19T08:54:50;11.85;;;8.68;;
42840;SDS011;28491;46.898;7.660;2022-08-19T08:57:24;10.50;;;8.48;;
42840;SDS011;28491;46.898;7.660;2022-08-19T08:59:54;10.27;;;9.20;;
42840;SDS011;28491;46.898;7.660;2022-08-19T09:02:24;10.00;;;8.88;;
42840;SDS011;28491;46.898;7.660;2022-08-19T09:04:51;12.60;;;10.20;;
42840;SDS011;28491;46.898;7.660;2022-08-19T09:10:06;11.13;;;9.35;;
42840;SDS011;28491;46.898;7.660;2022-08-19T09:15:14;12.55;;;9.40;;
42840;SDS011;28491;46.898;7.660;2022-08-19T09:17:43;9.93;;;8.88;;
42840;SDS011;28491;46.898;7.660;2022-08-19T09:22:36;10.77;;;9.68;;
42840;SDS011;28491;46.898;7.660;2022-08-19T09:25:02;9.55;;;8.32;;
42840;SDS011;28491;46.898;7.660;2022-08-19T09:27:29;9.82;;;8.45;;
42840;SDS011;28491;46.898;7.660;2022-08-19T09:29:56;12.55;;;9.30;;
42840;SDS011;28491;46.898;7.660;2022-08-19T09:32:22;11.25;;;8.77;;
42840;SDS011;28491;46.898;7.660;2022-08-19T09:34:48;16.13;;;8.18;;
42840;SDS011;28491;46.898;7.660;2022-08-19T09:37:14;11.82;;;9.95;;
42840;SDS011;28491;46.898;7.660;2022-08-19T09:39:40;9.85;;;8.05;;
42840;SDS011;28491;46.898;7.660;2022-08-19T09:42:06;10.77;;;9.50;;
42840;SDS011;28491;46.898;7.660;2022-08-19T09:44:37;12.50;;;9.57;;
42840;SDS011;28491;46.898;7.660;2022-08-19T09:47:04;10.88;;;9.52;;
42840;SDS011;28491;46.898;7.660;2022-08-19T09:49:29;9.45;;;8.45;;
42840;SDS011;28491;46.898;7.660;2022-08-19T09:51:56;9.45;;;8.45;;
42840;SDS011;28491;46.898;7.660;2022-08-19T09:54:21;10.43;;;8.63;;
42840;SDS011;28491;46.898;7.660;2022-08-19T09:56:48;13.05;;;9.77;;
42840;SDS011;28491;46.898;7.660;2022-08-19T09:59:13;8.68;;;7.78;;
42840;SDS011;28491;46.898;7.660;2022-08-19T10:01:39;8.25;;;7.43;;
42840;SDS011;28491;46.898;7.660;2022-08-19T10:04:05;9.43;;;8.43;;
42840;SDS011;28491;46.898;7.660;2022-08-19T10:06:34;9.40;;;8.40;;
42840;SDS011;28491;46.898;7.660;2022-08-19T10:09:02;8.68;;;7.20;;
42840;SDS011;28491;46.898;7.660;2022-08-19T10:11:32;8.55;;;7.57;;
42840;SDS011;28491;46.898;7.660;2022-08-19T10:14:00;7.60;;;6.85;;
42840;SDS011;28491;46.898;7.660;2022-08-19T10:16:26;7.78;;;6.53;;
42840;SDS011;28491;46.898;7.660;2022-08-19T10:18:52;7.43;;;6.60;;
42840;SDS011;28491;46.898;7.660;2022-08-19T10:21:20;7.75;;;6.63;;
42840;SDS011;28491;46.898;7.660;2022-08-19T10:23:48;8.45;;;7.05;;
42840;SDS011;28491;46.898;7.660;2022-08-19T10:26:17;10.13;;;6.82;;
42840;SDS011;28491;46.898;7.660;2022-08-19T10:28:45;6.85;;;6.15;;
42840;SDS011;28491;46.898;7.660;2022-08-19T10:31:13;7.85;;;6.00;;
42840;SDS011;28491;46.898;7.660;2022-08-19T10:33:44;7.97;;;7.15;;
42840;SDS011;28491;46.898;7.660;2022-08-19T10:36:13;8.93;;;6.75;;
42840;SDS011;28491;46.898;7.660;2022-08-19T10:38:46;7.70;;;6.43;;
42840;SDS011;28491;46.898;7.660;2022-08-19T10:41:15;10.13;;;6.35;;
42840;SDS011;28491;46.898;7.660;2022-08-19T10:46:11;7.20;;;6.10;;
42840;SDS011;28491;46.898;7.660;2022-08-19T10:51:05;5.55;;;4.70;;
42840;SDS011;28491;46.898;7.660;2022-08-19T10:53:50;6.82;;;4.95;;
42840;SDS011;28491;46.898;7.660;2022-08-19T10:56:16;6.60;;;5.78;;
42840;SDS011;28491;46.898;7.660;2022-08-19T10:59:01;7.45;;;5.22;;
42840;SDS011;28491;46.898;7.660;2022-08-19T11:01:28;7.00;;;5.85;;
42840;SDS011;28491;46.898;7.660;2022-08-19T11:03:55;8.60;;;6.10;;
42840;SDS011;28491;46.898;7.660;2022-08-19T11:06:22;7.68;;;5.45;;
42840;SDS011;28491;46.898;7.660;2022-08-19T11:08:50;7.07;;;6.13;;
42840;SDS011;28491;46.898;7.660;2022-08-19T11:11:16;7.07;;;6.38;;
42840;SDS011;28491;46.898;7.660;2022-08-19T11:13:42;6.93;;;5.60;;
42840;SDS011;28491;46.898;7.660;2022-08-19T11:16:15;7.38;;;6.43;;
42840;SDS011;28491;46.898;7.660;2022-08-19T11:18:44;5.57;;;4.97;;
42840;SDS011;28491;46.898;7.660;2022-08-19T11:24:00;6.82;;;5.57;;
42840;SDS011;28491;46.898;7.660;2022-08-19T11:26:28;7.20;;;5.47;;
42840;SDS011;28491;46.898;7.660;2022-08-19T11:28:56;8.98;;;6.97;;
42840;SDS011;28491;46.898;7.660;2022-08-19T11:31:24;6.60;;;6.00;;
42840;SDS011;28491;46.898;7.660;2022-08-19T11:33:52;6.22;;;5.50;;
42840;SDS011;28491;46.898;7.660;2022-08-19T11:36:19;9.63;;;6.90;;
42840;SDS011;28491;46.898;7.660;2022-08-19T11:38:46;9.23;;;7.93;;
42840;SDS011;28491;46.898;7.660;2022-08-19T11:41:16;9.23;;;7.65;;
42840;SDS011;28491;46.898;7.660;2022-08-19T11:43:43;9.30;;;6.55;;
42840;SDS011;28491;46.898;7.660;2022-08-19T11:46:09;9.65;;;7.43;;
42840;SDS011;28491;46.898;7.660;2022-08-19T11:48:36;8.50;;;6.50;;
42840;SDS011;28491;46.898;7.660;2022-08-19T11:51:04;8.35;;;6.05;;
42840;SDS011;28491;46.898;7.660;2022-08-19T11:53:31;7.60;;;6.80;;
42840;SDS011;28491;46.898;7.660;2022-08-19T11:55:57;7.93;;;6.72;;
42840;SDS011;28491;46.898;7.660;2022-08-19T11:58:23;7.93;;;6.95;;
42840;SDS011;28491;46.898;7.660;2022-08-19T12:00:50;8.25;;;7.30;;
42840;SDS011;28491;46.898;7.660;2022-08-19T12:03:16;7.38;;;6.57;;
42840;SDS011;28491;46.898;7.660;2022-08-19T12:05:42;8.98;;;6.63;;
42840;SDS011;28491;46.898;7.660;2022-08-19T12:08:08;6.93;;;6.18;;
42840;SDS011;28491;46.898;7.660;2022-08-19T12:10:34;8.73;;;6.63;;
42840;SDS011;28491;46.898;7.660;2022-08-19T12:13:00;9.15;;;6.55;;
42840;SDS011;28491;46.898;7.660;2022-08-19T12:15:26;6.88;;;6.18;;
42840;SDS011;28491;46.898;7.660;2022-08-19T12:20:22;8.13;;;5.97;;
42840;SDS011;28491;46.898;7.660;2022-08-19T12:22:48;10.13;;;7.07;;
42840;SDS011;28491;46.898;7.660;2022-08-19T12:25:15;7.93;;;7.13;;
42840;SDS011;28491;46.898;7.660;2022-08-19T12:27:40;7.18;;;6.05;;
42840;SDS011;28491;46.898;7.660;2022-08-19T12:30:07;8.55;;;6.63;;
42840;SDS011;28491;46.898;7.660;2022-08-19T12:32:34;7.25;;;6.40;;
42840;SDS011;28491;46.898;7.660;2022-08-19T12:35:00;7.20;;;6.30;;
42840;SDS011;28491;46.898;7.660;2022-08-19T12:37:26;6.93;;;6.22;;
42840;SDS011;28491;46.898;7.660;2022-08-19T12:39:51;7.78;;;6.97;;
42840;SDS011;28491;46.898;7.660;2022-08-19T12:42:17;8.93;;;6.63;;
42840;SDS011;28491;46.898;7.660;2022-08-19T12:44:43;11.20;;;7.65;;
42840;SDS011;28491;46.898;7.660;2022-08-19T12:47:10;9.98;;;7.43;;
42840;SDS011;28491;46.898;7.660;2022-08-19T12:49:38;9.57;;;7.32;;
42840;SDS011;28491;46.898;7.660;2022-08-19T12:52:06;9.95;;;8.48;;
42840;SDS011;28491;46.898;7.660;2022-08-19T12:54:34;12.52;;;8.57;;
42840;SDS011;28491;46.898;7.660;2022-08-19T12:57:04;8.32;;;7.20;;
42840;SDS011;28491;46.898;7.660;2022-08-19T12:59:31;11.07;;;8.73;;
42840;SDS011;28491;46.898;7.660;2022-08-19T13:01:56;9.63;;;8.18;;
42840;SDS011;28491;46.898;7.660;2022-08-19T13:04:22;12.15;;;8.65;;
42840;SDS011;28491;46.898;7.660;2022-08-19T13:06:47;10.20;;;8.80;;
42840;SDS011;28491;46.898;7.660;2022-08-19T13:09:13;9.63;;;8.60;;
42840;SDS011;28491;46.898;7.660;2022-08-19T13:11:38;9.50;;;8.35;;
42840;SDS011;28491;46.898;7.660;2022-08-19T13:14:04;11.38;;;8.55;;
42840;SDS011;28491;46.898;7.660;2022-08-19T13:16:30;10.60;;;9.50;;
42840;SDS011;28491;46.898;7.660;2022-08-19T13:18:56;11.00;;;8.90;;
42840;SDS011;28491;46.898;7.660;2022-08-19T13:21:25;11.93;;;8.60;;
42840;SDS011;28491;46.898;7.660;2022-08-19T13:23:52;10.65;;;9.55;;
42840;SDS011;28491;46.898;7.660;2022-08-19T13:26:19;16.50;;;14.23;;
42840;SDS011;28491;46.898;7.660;2022-08-19T13:28:45;10.68;;;9.57;;
42840;SDS011;28491;46.898;7.660;2022-08-19T13:31:30;12.70;;;9.93;;
42840;SDS011;28491;46.898;7.660;2022-08-19T13:34:16;13.68;;;11.13;;
42840;SDS011;28491;46.898;7.660;2022-08-19T13:36:52;11.32;;;9.80;;
42840;SDS011;28491;46.898;7.660;2022-08-19T13:39:18;13.40;;;10.98;;
42840;SDS011;28491;46.898;7.660;2022-08-19T13:41:45;12.15;;;10.65;;
42840;SDS011;28491;46.898;7.660;2022-08-19T13:44:15;14.07;;;11.57;;
42840;SDS011;28491;46.898;7.660;2022-08-19T13:46:43;12.48;;;11.18;;
42840;SDS011;28491;46.898;7.660;2022-08-19T13:49:10;13.38;;;11.20;;
42840;SDS011;28491;46.898;7.660;2022-08-19T13:51:38;12.52;;;11.10;;
42840;SDS011;28491;46.898;7.660;2022-08-19T13:54:05;12.20;;;10.57;;
42840;SDS011;28491;46.898;7.660;2022-08-19T13:56:31;12.48;;;10.73;;
42840;SDS011;28491;46.898;7.660;2022-08-19T13:58:57;16.60;;;12.65;;
42840;SDS011;28491;46.898;7.660;2022-08-19T14:01:22;17.25;;;11.40;;
42840;SDS011;28491;46.898;7.660;2022-08-19T14:03:48;13.40;;;10.18;;
42840;SDS011;28491;46.898;7.660;2022-08-19T14:06:14;13.63;;;11.05;;
42840;SDS011;28491;46.898;7.660;2022-08-19T14:08:40;12.63;;;11.32;;
42840;SDS011;28491;46.898;7.660;2022-08-19T14:11:06;13.45;;;10.30;;
42840;SDS011;28491;46.898;7.660;2022-08-19T14:13:32;13.65;;;11.10;;
42840;SDS011;28491;46.898;7.660;2022-08-19T14:15:58;12.48;;;9.85;;
42840;SDS011;28491;46.898;7.660;2022-08-19T14:18:24;13.05;;;10.75;;
42840;SDS011;28491;46.898;7.660;2022-08-19T14:20:50;12.63;;;10.95;;
42840;SDS011;28491;46.898;7.660;2022-08-19T14:23:17;12.70;;;10.80;;
42840;SDS011;28491;46.898;7.660;2022-08-19T14:25:43;13.90;;;11.27;;
42840;SDS011;28491;46.898;7.660;2022-08-19T14:28:09;16.50;;;12.68;;
42840;SDS011;28491;46.898;7.660;2022-08-19T14:30:35;16.38;;;13.20;;
42840;SDS011;28491;46.898;7.660;2022-08-19T14:33:02;13.98;;;12.35;;
42840;SDS011;28491;46.898;7.660;2022-08-19T14:35:30;16.63;;;13.75;;
42840;SDS011;28491;46.898;7.660;2022-08-19T14:38:00;18.58;;;13.73;;
42840;SDS011;28491;46.898;7.660;2022-08-19T14:40:30;14.73;;;12.88;;
42840;SDS011;28491;46.898;7.660;2022-08-19T14:42:56;14.82;;;13.23;;
42840;SDS011;28491;46.898;7.660;2022-08-19T14:45:26;17.15;;;13.90;;
42840;SDS011;28491;46.898;7.660;2022-08-19T14:47:53;18.20;;;14.32;;
42840;SDS011;28491;46.898;7.660;2022-08-19T14:50:20;15.10;;;11.68;;
42840;SDS011;28491;46.898;7.660;2022-08-19T14:52:46;12.10;;;10.48;;
42840;SDS011;28491;46.898;7.660;2022-08-19T14:55:13;12.70;;;10.50;;
42840;SDS011;28491;46.898;7.660;2022-08-19T14:57:40;14.73;;;12.70;;
42840;SDS011;28491;46.898;7.660;2022-08-19T15:00:07;13.80;;;11.82;;
42840;SDS011;28491;46.898;7.660;2022-08-19T15:02:37;14.13;;;11.95;;
42840;SDS011;28491;46.898;7.660;2022-08-19T15:05:04;15.20;;;12.88;;
42840;SDS011;28491;46.898;7.660;2022-08-19T15:07:30;20.30;;;15.25;;